createdAt,value
2018-07-05T00:01:14.123Z,16.40
2018-07-05T00:04:01.490Z,16.40
2018-07-05T00:06:49.007Z,16.30
2018-07-05T00:09:36.126Z,16.20
2018-07-05T00:12:23.425Z,16.10
2018-07-05T00:15:10.763Z,16.10
2018-07-05T00:17:58.110Z,16.10
2018-07-05T00:20:45.434Z,16.10
2018-07-05T00:23:32.611Z,16.00
2018-07-05T00:26:19.851Z,16.00
2018-07-05T00:29:07.124Z,15.90
2018-07-05T00:31:54.437Z,15.80
2018-07-05T00:34:41.837Z,15.80
2018-07-05T00:37:29.638Z,15.70
2018-07-05T00:40:17.122Z,15.70
2018-07-05T00:43:04.408Z,15.70
2018-07-05T00:45:51.711Z,15.70
2018-07-05T00:48:39.385Z,15.60
2018-07-05T00:51:26.774Z,15.60
2018-07-05T00:54:14.257Z,15.60
2018-07-05T00:57:01.540Z,15.60
2018-07-05T00:59:48.927Z,15.50
2018-07-05T01:02:36.214Z,15.40
2018-07-05T01:05:23.556Z,15.40
2018-07-05T01:08:10.821Z,15.40
2018-07-05T01:10:58.266Z,15.30
2018-07-05T01:13:45.774Z,15.20
2018-07-05T01:16:33.124Z,15.20
2018-07-05T01:19:20.557Z,15.20
2018-07-05T01:22:07.829Z,15.20
2018-07-05T01:24:55.112Z,15.20
2018-07-05T01:27:42.465Z,15.20
2018-07-05T01:30:29.940Z,15.10
2018-07-05T01:33:17.513Z,15.10
2018-07-05T01:36:04.832Z,15.10
2018-07-05T01:38:52.190Z,15.10
2018-07-05T01:41:39.513Z,15.00
2018-07-05T01:44:26.922Z,15.00
2018-07-05T01:47:14.237Z,14.90
2018-07-05T01:50:01.835Z,14.90
2018-07-05T01:52:49.201Z,15.00
2018-07-05T01:55:36.684Z,14.90
2018-07-05T01:58:24.053Z,14.80
2018-07-05T02:01:11.373Z,14.70
2018-07-05T02:03:58.693Z,14.60
2018-07-05T02:06:46.043Z,14.60
2018-07-05T02:09:34.261Z,14.60
2018-07-05T02:12:21.773Z,14.50
2018-07-05T02:15:09.155Z,14.50
2018-07-05T02:17:56.349Z,14.50
2018-07-05T02:20:43.617Z,14.40
2018-07-05T02:23:31.009Z,14.40
2018-07-05T02:26:18.339Z,14.30
2018-07-05T02:29:05.584Z,14.30
2018-07-05T02:31:53.053Z,14.30
2018-07-05T02:34:40.559Z,14.20
2018-07-05T02:37:33.235Z,14.10
2018-07-05T02:40:20.638Z,14.20
2018-07-05T02:43:07.962Z,14.10
2018-07-05T02:45:55.396Z,14.20
2018-07-05T02:48:42.775Z,14.20
2018-07-05T02:51:29.986Z,14.20
2018-07-05T02:54:17.711Z,14.20
2018-07-05T02:57:05.038Z,14.20
2018-07-05T02:59:52.461Z,14.20
2018-07-05T03:02:39.797Z,14.20
2018-07-05T03:05:27.570Z,14.10
2018-07-05T03:08:15.038Z,14.10
2018-07-05T03:11:02.449Z,14.10
2018-07-05T03:13:50.002Z,14.00
2018-07-05T03:16:37.310Z,14.00
2018-07-05T03:19:24.809Z,14.00
2018-07-05T03:22:12.102Z,14.00
2018-07-05T03:24:59.397Z,14.00
2018-07-05T03:27:46.694Z,14.00
2018-07-05T03:30:34.134Z,14.00
2018-07-05T03:33:21.381Z,14.10
2018-07-05T03:36:08.755Z,14.10
2018-07-05T03:38:56.178Z,14.10
2018-07-05T03:41:43.516Z,14.10
2018-07-05T03:44:30.822Z,14.10
2018-07-05T03:47:18.403Z,14.10
2018-07-05T03:50:05.739Z,14.10
2018-07-05T03:52:53.208Z,14.00
2018-07-05T03:55:40.525Z,14.10
2018-07-05T03:58:27.855Z,14.10
2018-07-05T04:01:15.239Z,14.00
2018-07-05T04:04:02.831Z,14.00
2018-07-05T04:06:50.520Z,14.00
2018-07-05T04:09:38.001Z,14.00
2018-07-05T04:12:25.322Z,14.00
2018-07-05T04:15:12.646Z,14.00
2018-07-05T04:18:00.034Z,14.10
2018-07-05T04:20:47.496Z,14.10
2018-07-05T04:23:34.796Z,14.10
2018-07-05T04:26:22.573Z,14.00
2018-07-05T04:29:09.868Z,14.10
2018-07-05T04:31:57.389Z,14.10
2018-07-05T04:34:44.570Z,14.10
2018-07-05T04:37:31.981Z,14.10
2018-07-05T04:40:19.235Z,14.10
2018-07-05T04:43:06.866Z,14.10
2018-07-05T04:45:54.244Z,14.20
2018-07-05T04:48:41.620Z,14.20
2018-07-05T04:51:28.871Z,14.30
2018-07-05T04:54:16.325Z,14.30
2018-07-05T04:57:03.787Z,14.30
2018-07-05T04:59:51.166Z,14.30
2018-07-05T05:02:38.286Z,14.50
2018-07-05T05:05:25.743Z,14.60
2018-07-05T05:08:14.075Z,14.70
2018-07-05T05:11:01.429Z,14.80
2018-07-05T05:13:48.795Z,14.90
2018-07-05T05:16:36.174Z,15.10
2018-07-05T05:19:23.515Z,15.20
2018-07-05T05:22:10.773Z,15.20
2018-07-05T05:24:57.736Z,15.30
2018-07-05T05:27:45.136Z,15.40
2018-07-05T05:30:33.309Z,15.50
2018-07-05T05:33:20.833Z,15.60
2018-07-05T05:36:08.033Z,15.70
2018-07-05T05:38:56.324Z,15.80
2018-07-05T05:41:46.480Z,15.80
2018-07-05T05:44:33.999Z,15.90
2018-07-05T05:47:21.425Z,15.90
2018-07-05T05:50:08.794Z,16.10
2018-07-05T05:52:56.277Z,16.20
2018-07-05T05:55:43.727Z,16.20
2018-07-05T05:58:31.136Z,16.30
2018-07-05T06:01:18.701Z,16.40
2018-07-05T06:04:05.892Z,16.50
2018-07-05T06:06:53.438Z,16.60
2018-07-05T06:09:40.685Z,16.70
2018-07-05T06:12:28.147Z,16.80
2018-07-05T06:15:15.428Z,17.00
2018-07-05T06:18:02.962Z,17.10
2018-07-05T06:20:50.458Z,17.20
2018-07-05T06:23:37.949Z,17.30
2018-07-05T06:26:25.590Z,17.40
2018-07-05T06:29:12.845Z,17.50
2018-07-05T06:32:00.087Z,17.60
2018-07-05T06:34:47.527Z,17.70
2018-07-05T06:37:35.059Z,17.90
2018-07-05T06:40:22.580Z,18.00
2018-07-05T06:43:10.017Z,18.20
2018-07-05T06:45:57.256Z,18.40
2018-07-05T06:48:44.524Z,18.60
2018-07-05T06:51:31.943Z,18.70
2018-07-05T06:54:19.832Z,18.80
2018-07-05T06:57:08.637Z,18.90
2018-07-05T06:59:56.027Z,19.00
2018-07-05T07:02:43.337Z,19.10
2018-07-05T07:05:30.537Z,19.30
2018-07-05T07:08:17.932Z,19.30
2018-07-05T07:11:05.255Z,19.40
2018-07-05T07:13:52.527Z,19.60
2018-07-05T07:16:39.802Z,19.70
2018-07-05T07:22:08.414Z,19.90
2018-07-05T07:24:55.854Z,20.00
2018-07-05T07:27:43.621Z,20.10
2018-07-05T07:30:31.273Z,20.20
2018-07-05T07:33:18.740Z,20.40
2018-07-05T07:36:06.265Z,20.50
2018-07-05T07:38:53.498Z,20.60
2018-07-05T07:41:41.817Z,20.70
2018-07-05T07:44:10.523Z,20.80
2018-07-05T07:46:39.214Z,21.00
2018-07-05T07:49:08.009Z,21.10
2018-07-05T07:51:36.706Z,21.20
2018-07-05T07:54:05.763Z,21.30
2018-07-05T07:56:34.496Z,21.40
2018-07-05T07:59:03.822Z,21.50
2018-07-05T08:01:32.511Z,21.60
2018-07-05T08:04:01.268Z,21.70
2018-07-05T08:06:29.931Z,21.80
2018-07-05T08:08:58.626Z,21.90
2018-07-05T08:11:27.418Z,22.00
2018-07-05T08:13:56.104Z,22.10
2018-07-05T08:16:24.786Z,22.20
2018-07-05T08:18:53.527Z,22.30
2018-07-05T08:21:22.206Z,22.40
2018-07-05T08:23:50.867Z,22.60
2018-07-05T08:26:20.474Z,22.70
2018-07-05T08:28:49.239Z,22.80
2018-07-05T08:31:17.988Z,22.90
2018-07-05T08:33:46.723Z,23.10
2018-07-05T08:36:15.425Z,23.20
2018-07-05T08:38:44.156Z,23.30
2018-07-05T08:41:14.861Z,23.30
2018-07-05T08:43:44.470Z,23.40
2018-07-05T08:46:13.150Z,23.50
2018-07-05T08:48:42.240Z,23.60
2018-07-05T08:51:10.915Z,23.70
2018-07-05T08:53:39.582Z,23.80
2018-07-05T08:56:08.320Z,23.90
2018-07-05T08:58:37.005Z,24.10
2018-07-05T09:01:05.682Z,24.20
2018-07-05T09:03:34.553Z,24.30
2018-07-05T09:06:03.277Z,24.40
2018-07-05T09:08:32.030Z,24.50
2018-07-05T09:11:00.851Z,24.70
2018-07-05T09:13:29.589Z,24.80
2018-07-05T09:15:58.319Z,24.90
2018-07-05T09:18:27.091Z,24.90
2018-07-05T09:20:55.809Z,24.90
2018-07-05T09:23:24.624Z,25.10
2018-07-05T09:25:53.198Z,25.10
2018-07-05T09:28:21.908Z,25.20
2018-07-05T09:30:50.625Z,25.30
2018-07-05T09:33:19.374Z,25.40
2018-07-05T09:35:48.132Z,25.50
2018-07-05T09:38:16.856Z,25.50
2018-07-05T09:40:45.997Z,25.60
2018-07-05T09:43:14.720Z,25.70
2018-07-05T09:45:43.606Z,25.80
2018-07-05T09:48:12.459Z,25.80
2018-07-05T09:50:41.179Z,26.00
2018-07-05T09:53:10.103Z,26.10
2018-07-05T09:55:38.838Z,26.20
2018-07-05T09:58:07.569Z,26.20
2018-07-05T10:00:41.556Z,26.40
2018-07-05T10:03:10.953Z,26.50
2018-07-05T10:05:39.708Z,26.60
2018-07-05T10:08:08.514Z,26.80
2018-07-05T10:10:37.748Z,27.00
2018-07-05T10:13:07.355Z,27.30
2018-07-05T10:15:36.144Z,27.50
2018-07-05T10:18:05.158Z,27.70
2018-07-05T10:20:34.193Z,27.90
2018-07-05T10:25:31.884Z,28.20
2018-07-05T10:28:00.620Z,28.50
2018-07-05T10:30:47.903Z,28.70
2018-07-05T10:33:35.143Z,28.80
2018-07-05T10:36:03.885Z,29.00
2018-07-05T10:38:32.619Z,29.20
2018-07-05T10:41:20.437Z,29.40
2018-07-05T10:44:07.849Z,29.60
2018-07-05T10:46:56.245Z,29.90
2018-07-05T10:49:43.699Z,30.30
2018-07-05T10:52:31.144Z,30.50
2018-07-05T10:55:18.451Z,30.70
2018-07-05T10:58:05.917Z,30.90
2018-07-05T11:00:53.219Z,31.00
2018-07-05T11:03:40.487Z,31.00
2018-07-05T11:06:27.845Z,31.30
2018-07-05T11:09:15.153Z,31.70
2018-07-05T11:12:02.567Z,31.70
2018-07-05T11:14:50.139Z,31.70
2018-07-05T11:17:37.510Z,31.80
2018-07-05T11:20:25.091Z,32.00
2018-07-05T11:23:12.329Z,32.30
2018-07-05T11:25:59.637Z,32.10
2018-07-05T11:28:46.722Z,32.00
2018-07-05T11:31:34.097Z,32.30
2018-07-05T11:34:21.499Z,32.70
2018-07-05T11:37:08.659Z,33.30
2018-07-05T11:39:56.009Z,33.00
2018-07-05T11:42:43.607Z,33.30
2018-07-05T11:45:31.044Z,33.70
2018-07-05T11:48:18.563Z,34.00
2018-07-05T11:51:05.831Z,34.10
2018-07-05T11:53:52.934Z,34.30
2018-07-05T11:56:41.249Z,34.50
2018-07-05T11:59:28.734Z,34.60
2018-07-05T12:02:16.196Z,34.20
2018-07-05T12:05:03.630Z,34.20
2018-07-05T12:07:50.991Z,34.90
2018-07-05T12:10:38.166Z,35.70
2018-07-05T12:13:25.465Z,36.10
2018-07-05T12:16:13.000Z,36.80
2018-07-05T12:19:00.336Z,36.50
2018-07-05T12:21:47.796Z,35.60
2018-07-05T12:27:16.406Z,35.20
2018-07-05T12:30:03.980Z,35.60
2018-07-05T12:32:51.267Z,36.30
2018-07-05T12:35:38.822Z,36.60
2018-07-05T12:38:26.229Z,36.40
2018-07-05T12:41:13.682Z,37.00
2018-07-05T12:44:01.186Z,37.40
2018-07-05T12:46:48.326Z,37.90
2018-07-05T12:49:35.757Z,38.40
2018-07-05T12:52:23.256Z,38.20
2018-07-05T12:55:10.768Z,38.00
2018-07-05T12:57:58.166Z,37.70
2018-07-05T13:00:45.494Z,37.20
2018-07-05T13:03:32.753Z,37.40
2018-07-05T13:06:20.244Z,36.60
2018-07-05T13:09:08.706Z,36.90
2018-07-05T13:11:56.079Z,37.70
2018-07-05T13:14:43.610Z,38.50
2018-07-05T13:17:30.835Z,37.90
2018-07-05T13:20:18.247Z,36.90
2018-07-05T13:23:05.633Z,36.30
2018-07-05T13:25:52.982Z,37.20
2018-07-05T13:28:40.675Z,38.00
2018-07-05T13:31:27.832Z,38.80
2018-07-05T13:34:15.153Z,39.50
2018-07-05T13:37:02.505Z,40.00
2018-07-05T13:39:50.163Z,40.40
2018-07-05T13:42:37.333Z,39.90
2018-07-05T13:45:24.983Z,39.40
2018-07-05T13:48:12.426Z,39.40
2018-07-05T13:51:00.040Z,39.40
2018-07-05T13:53:47.306Z,39.00
2018-07-05T13:56:34.804Z,39.00
2018-07-05T13:59:22.172Z,38.60
2018-07-05T14:02:09.758Z,38.40
2018-07-05T14:04:57.198Z,38.10
2018-07-05T14:07:44.498Z,38.30
2018-07-05T14:10:32.026Z,38.70
2018-07-05T14:13:20.018Z,39.10
2018-07-05T14:16:07.231Z,39.50
2018-07-05T14:18:54.487Z,39.80
2018-07-05T14:21:41.857Z,39.60
2018-07-05T14:24:29.127Z,38.90
2018-07-05T14:27:16.500Z,39.10
2018-07-05T14:30:03.868Z,39.20
2018-07-05T14:32:52.594Z,39.10
2018-07-05T14:35:39.927Z,38.60
2018-07-05T14:38:27.405Z,39.10
2018-07-05T14:41:14.735Z,39.80
2018-07-05T14:44:02.020Z,40.20
2018-07-05T14:46:49.256Z,40.70
2018-07-05T14:49:36.737Z,40.50
2018-07-05T14:52:24.982Z,40.40
2018-07-05T14:55:12.200Z,40.60
2018-07-05T14:57:59.805Z,41.20
2018-07-05T15:00:47.073Z,40.60
2018-07-05T15:03:34.355Z,40.50
2018-07-05T15:06:21.722Z,40.60
2018-07-05T15:09:09.358Z,40.60
2018-07-05T15:11:56.838Z,40.60
2018-07-05T15:14:44.683Z,40.80
2018-07-05T15:17:32.176Z,40.30
2018-07-05T15:20:19.688Z,40.70
2018-07-05T15:23:07.129Z,40.90
2018-07-05T15:25:54.530Z,40.50
2018-07-05T15:28:42.098Z,40.60
2018-07-05T15:31:29.544Z,40.30
2018-07-05T15:34:17.042Z,40.10
2018-07-05T15:37:04.672Z,38.90
2018-07-05T15:39:51.944Z,37.40
2018-07-05T15:42:39.385Z,37.10
2018-07-05T15:45:26.741Z,37.20
2018-07-05T15:48:13.965Z,36.30
2018-07-05T15:51:01.233Z,35.10
2018-07-05T15:53:49.204Z,34.00
2018-07-05T15:56:36.869Z,33.30
2018-07-05T15:59:24.473Z,32.60
2018-07-05T16:02:11.766Z,31.80
2018-07-05T16:04:58.953Z,31.30
2018-07-05T16:07:46.869Z,31.10
2018-07-05T16:10:35.064Z,31.20
2018-07-05T16:13:23.009Z,32.40
2018-07-05T16:16:10.283Z,33.50
2018-07-05T16:18:57.738Z,35.00
2018-07-05T16:21:45.767Z,36.20
2018-07-05T16:24:33.020Z,37.30
2018-07-05T16:27:20.518Z,38.40
2018-07-05T16:30:07.664Z,38.80
2018-07-05T16:32:55.041Z,38.30
2018-07-05T16:35:42.178Z,38.70
2018-07-05T16:38:29.671Z,39.40
2018-07-05T16:41:17.138Z,39.90
2018-07-05T16:44:04.570Z,40.50
2018-07-05T16:46:51.977Z,40.30
2018-07-05T16:49:39.537Z,40.10
2018-07-05T16:52:26.898Z,40.00
2018-07-05T16:55:14.482Z,39.20
2018-07-05T16:58:01.807Z,38.20
2018-07-05T17:00:49.446Z,37.90
2018-07-05T17:03:36.636Z,38.20
2018-07-05T17:06:23.969Z,37.40
2018-07-05T17:09:11.498Z,37.10
2018-07-05T17:11:59.345Z,36.40
2018-07-05T17:14:46.599Z,35.50
2018-07-05T17:17:34.079Z,35.00
2018-07-05T17:20:21.388Z,34.50
2018-07-05T17:23:08.612Z,34.10
2018-07-05T17:25:55.826Z,33.40
2018-07-05T17:28:43.232Z,32.70
2018-07-05T17:31:30.457Z,32.10
2018-07-05T17:34:18.041Z,31.40
2018-07-05T17:37:05.305Z,31.00
2018-07-05T17:39:52.554Z,30.70
2018-07-05T17:42:40.058Z,30.20
2018-07-05T17:45:28.035Z,30.00
2018-07-05T17:48:15.181Z,29.70
2018-07-05T17:51:02.634Z,29.50
2018-07-05T17:53:49.958Z,29.30
2018-07-05T17:56:37.451Z,28.90
2018-07-05T17:59:24.768Z,28.60
2018-07-05T18:02:12.129Z,28.20
2018-07-05T18:04:59.363Z,27.80
2018-07-05T18:07:46.799Z,27.70
2018-07-05T18:10:34.046Z,27.50
2018-07-05T18:13:21.656Z,27.30
2018-07-05T18:16:09.049Z,27.30
2018-07-05T18:18:56.373Z,27.30
2018-07-05T18:21:43.720Z,27.30
2018-07-05T18:24:30.898Z,27.20
2018-07-05T18:27:18.402Z,27.10
2018-07-05T18:30:05.873Z,27.00
2018-07-05T18:32:53.106Z,26.90
2018-07-05T18:35:40.465Z,26.80
2018-07-05T18:38:27.526Z,26.70
2018-07-05T18:41:14.896Z,26.60
2018-07-05T18:44:02.302Z,26.50
2018-07-05T18:46:49.648Z,26.40
2018-07-05T18:49:36.963Z,26.30
2018-07-05T18:52:24.225Z,26.20
2018-07-05T18:55:11.743Z,26.00
2018-07-05T18:57:58.991Z,25.90
2018-07-05T19:00:46.346Z,25.70
2018-07-05T19:03:33.557Z,25.60
2018-07-05T19:06:21.069Z,25.50
2018-07-05T19:09:08.571Z,25.50
2018-07-05T19:11:56.034Z,25.40
2018-07-05T19:14:43.527Z,25.30
2018-07-05T19:17:30.861Z,25.20
2018-07-05T19:20:18.274Z,25.10
2018-07-05T19:23:05.577Z,24.80
2018-07-05T19:25:53.113Z,24.50
2018-07-05T19:28:40.566Z,24.40
2018-07-05T19:31:28.949Z,24.40
2018-07-05T19:34:16.239Z,24.40
2018-07-05T19:37:03.729Z,24.40
2018-07-05T19:39:51.170Z,24.30
2018-07-05T19:42:39.235Z,24.20
2018-07-05T19:45:26.605Z,24.20
2018-07-05T19:48:14.101Z,24.20
2018-07-05T19:51:01.675Z,24.00
2018-07-05T19:53:49.098Z,24.00
2018-07-05T19:56:36.426Z,23.90
2018-07-05T19:59:23.932Z,23.90
2018-07-05T20:02:11.564Z,23.80
2018-07-05T20:04:58.885Z,23.80
2018-07-05T20:07:46.312Z,23.80
2018-07-05T20:10:33.694Z,23.80
2018-07-05T20:13:21.086Z,23.90
2018-07-05T20:16:08.570Z,23.80
2018-07-05T20:18:56.354Z,23.70
2018-07-05T20:21:43.583Z,23.70
2018-07-05T20:24:31.047Z,23.60
2018-07-05T20:27:19.306Z,23.40
2018-07-05T20:30:06.729Z,23.20
2018-07-05T20:32:54.367Z,23.00
2018-07-05T20:35:42.552Z,22.90
2018-07-05T20:38:29.761Z,22.80
2018-07-05T20:41:17.826Z,22.70
2018-07-05T20:44:05.249Z,22.70
2018-07-05T20:46:52.541Z,22.60
2018-07-05T20:49:39.901Z,22.60
2018-07-05T20:52:27.313Z,22.50
2018-07-05T20:55:14.627Z,22.40
2018-07-05T20:58:02.043Z,22.30
2018-07-05T21:00:49.152Z,22.30
2018-07-05T21:03:36.592Z,22.20
2018-07-05T21:06:23.780Z,22.20
2018-07-05T21:09:10.922Z,22.10
2018-07-05T21:11:58.582Z,22.10
2018-07-05T21:14:45.967Z,22.00
2018-07-05T21:17:33.284Z,21.90
2018-07-05T21:20:20.420Z,21.70
2018-07-05T21:23:07.802Z,21.60
2018-07-05T21:25:56.218Z,21.60
2018-07-05T21:28:43.600Z,21.50
2018-07-05T21:31:30.938Z,21.50
2018-07-05T21:34:18.397Z,21.40
2018-07-05T21:37:05.725Z,21.30
2018-07-05T21:39:53.198Z,21.30
2018-07-05T21:42:40.488Z,21.20
2018-07-05T21:45:27.844Z,21.20
2018-07-05T21:48:15.076Z,21.00
2018-07-05T21:51:02.542Z,21.00
2018-07-05T21:53:49.942Z,20.90
2018-07-05T21:56:37.196Z,20.80
2018-07-05T21:59:24.457Z,20.80
2018-07-05T22:02:11.994Z,20.70
2018-07-05T22:04:59.370Z,20.70
2018-07-05T22:07:46.579Z,20.60
2018-07-05T22:10:33.903Z,20.60
2018-07-05T22:13:21.282Z,20.50
2018-07-05T22:16:08.849Z,20.40
2018-07-05T22:19:01.352Z,20.30
2018-07-05T22:21:53.973Z,20.30
2018-07-05T22:24:46.409Z,20.30
2018-07-05T22:27:38.909Z,20.20
2018-07-05T22:30:31.232Z,20.20
2018-07-05T22:33:18.747Z,20.10
2018-07-05T22:36:06.030Z,20.10
2018-07-05T22:38:53.455Z,20.00
2018-07-05T22:41:40.876Z,20.00
2018-07-05T22:44:28.157Z,20.00
2018-07-05T22:47:15.629Z,20.00
2018-07-05T22:50:02.945Z,20.00
2018-07-05T22:52:50.150Z,19.90
2018-07-05T22:55:37.647Z,19.80
2018-07-05T22:58:25.065Z,19.80
2018-07-05T23:01:12.526Z,19.70
2018-07-05T23:03:59.998Z,19.70
2018-07-05T23:06:47.384Z,19.60
2018-07-05T23:09:34.930Z,19.50
2018-07-05T23:12:22.095Z,19.50
2018-07-05T23:15:09.360Z,19.40
2018-07-05T23:17:56.732Z,19.40
2018-07-05T23:20:43.930Z,19.40
2018-07-05T23:23:31.456Z,19.30
2018-07-05T23:26:18.791Z,19.30
2018-07-05T23:29:06.212Z,19.30
2018-07-05T23:31:53.770Z,19.30
2018-07-05T23:34:41.167Z,19.40
2018-07-05T23:37:28.341Z,19.30
2018-07-05T23:40:15.596Z,19.30
2018-07-05T23:43:03.082Z,19.30
2018-07-05T23:45:50.528Z,19.30
2018-07-05T23:48:37.906Z,19.20
2018-07-05T23:51:25.360Z,19.20
2018-07-05T23:54:12.672Z,19.20
2018-07-05T23:56:59.991Z,19.20
2018-07-05T23:59:47.324Z,19.10
